METAR Data
IDs: Format: Raw Decoded Include TAF

Data at: 1515 UTC 18 Aug 2019

PAKK 181456Z AUTO 36007KT 10SM CLR 08/05 A3046 RMK AO2 SLP330 T00780050 58009
PAKK 181356Z AUTO 35008KT 10SM CLR 08/05 A3047 RMK AO2 SLP333 T00780050
PAKK 181256Z AUTO 34008KT 10SM CLR 08/04 A3048 RMK AO2 SLP337 T00830044
PAKK 181156Z AUTO 35008KT 10SM CLR 08/04 A3049 RMK AO2 SLP338 T00780044 10133 20078 58008
PAKK 181056Z AUTO 35006KT 10SM CLR 09/04 A3050 RMK AO2 SLP343 T00890044
PAKK 180956Z AUTO 36009KT 10SM CLR 09/05 A3050 RMK AO2 SLP343 T00940050
PAKK 180856Z AUTO 35008KT 10SM CLR 10/05 A3051 RMK AO2 SLP347 T01000050 401720056 58002
PAKK 180756Z AUTO 34007KT 10SM CLR 11/04 A3051 RMK AO2 SLP348 T01060044
PAKK 180656Z AUTO 34007KT 10SM CLR 12/05 A3052 RMK AO2 SLP350 T01170050
PAKK 180556Z AUTO 34007KT 10SM CLR 13/06 A3052 RMK AO2 SLP349 T01330056 10172 20133 57006
PAKK 180456Z AUTO 34006KT 10SM CLR 15/06 A3052 RMK AO2 SLP351 T01500061
PAKK 180356Z AUTO 34004KT 10SM CLR 16/06 A3053 RMK AO2 SLP354 T01610061
PAKK 180256Z AUTO 33007KT 10SM CLR 16/06 A3054 RMK AO2 SLP355 T01610061 57011
PAKK 180156Z AUTO 01006KT 10SM CLR 17/06 A3054 RMK AO2 SLP358 T01670056
PAKK 180056Z AUTO 36006KT 10SM CLR 17/06 A3056 RMK AO2 SLP363 T01670056
PAKK 172356Z AUTO 35007KT 10SM CLR 16/06 A3057 RMK AO2 SLP366 T01610056 10161 20078 58008
PAKK 172256Z AUTO 35008KT 10SM CLR 14/04 A3058 RMK AO2 SLP371 T01440044
PAKK 172156Z AUTO 03006KT 10SM CLR 13/03 A3059 RMK AO2 SLP374 T01330033
PAKK 172056Z AUTO VRB06KT 10SM CLR 12/03 A3059 RMK AO2 SLP374 T01220028 50001
PAKK 171956Z AUTO 02005KT 10SM CLR 11/02 A3059 RMK AO2 SLP375 T01060022
PAKK 171856Z AUTO 01006KT 10SM CLR 09/03 A3059 RMK AO2 SLP375 T00940028
PAKK 171756Z AUTO 36005KT 10SM CLR 08/03 A3059 RMK AO2 SLP373 T00780028 10083 20056 51010
PAKK 171656Z AUTO 35006KT 10SM CLR 07/03 A3058 RMK AO2 SLP370 T00720033
PAKK 171556Z AUTO 35007KT 10SM CLR 07/04 A3057 RMK AO2 SLP368 T00670039
PAKK 171456Z AUTO 35006KT 10SM CLR 06/05 A3056 RMK AO2 SLP364 T00610050 51012
PAKK 171356Z AUTO 33007KT 10SM CLR 07/06 A3055 RMK AO2 SLP360 T00670056
PAKK 171256Z AUTO 35007KT 10SM CLR 08/07 A3055 RMK AO2 SLP358 T00780067
PAKK 171156Z AUTO 36007G15KT 10SM CLR 08/07 A3053 RMK AO2 SLP352 70001 T00830067 10100 20078 52008
PAKK 171056Z AUTO 34007KT 320V020 10SM CLR 08/07 A3051 RMK AO2 SLP348 T00830067
PAKK 170956Z AUTO 33007KT 10SM CLR 08/06 A3051 RMK AO2 SLP348 T00830061
PAKK 170856Z AUTO 32007KT 10SM CLR 08/06 A3050 RMK AO2 SLP344 T00830061 401390078 51012
PAKK 170756Z AUTO 32007KT 10SM OVC040 09/06 A3049 RMK AO2 SLP341 T00940061
PAKK 170656Z AUTO 32005KT 10SM OVC034 09/06 A3048 RMK AO2 SLP336 T00940061
PAKK 170556Z AUTO 34004KT 10SM OVC030 10/06 A3047 RMK AO2 SLP332 T01000056 10139 20100 52018
PAKK 170456Z AUTO VRB05KT 10SM BKN036 11/06 A3045 RMK AO2 SLP325 T01110056
PAKK 170356Z AUTO 32004KT 10SM OVC036 12/06 A3043 RMK AO2 SLP320 T01170056